sensor_id;sensor_type;location;lat;lon;timestamp;temperature;humidity
3919;DHT22;1974;48.670;8.994;2023-09-19T00:00:31;16.20;99.90
3919;DHT22;1974;48.670;8.994;2023-09-19T00:02:59;16.20;99.90
3919;DHT22;1974;48.670;8.994;2023-09-19T00:05:28;16.20;99.90
3919;DHT22;1974;48.670;8.994;2023-09-19T00:07:56;16.10;99.90
3919;DHT22;1974;48.670;8.994;2023-09-19T00:10:24;16.10;99.90
3919;DHT22;1974;48.670;8.994;2023-09-19T00:12:52;16.10;99.90
3919;DHT22;1974;48.670;8.994;2023-09-19T00:15:20;16.20;99.90
3919;DHT22;1974;48.670;8.994;2023-09-19T00:17:47;16.20;99.90
3919;DHT22;1974;48.670;8.994;2023-09-19T00:20:14;16.20;99.90
3919;DHT22;1974;48.670;8.994;2023-09-19T00:22:44;16.20;99.90
3919;DHT22;1974;48.670;8.994;2023-09-19T00:25:11;16.10;99.90
3919;DHT22;1974;48.670;8.994;2023-09-19T00:27:41;16.20;99.90
3919;DHT22;1974;48.670;8.994;2023-09-19T00:30:09;16.20;99.90
3919;DHT22;1974;48.670;8.994;2023-09-19T00:32:40;16.20;99.90
3919;DHT22;1974;48.670;8.994;2023-09-19T00:35:07;16.30;99.90
3919;DHT22;1974;48.670;8.994;2023-09-19T00:37:35;16.20;99.90
3919;DHT22;1974;48.670;8.994;2023-09-19T00:40:03;16.20;99.90
3919;DHT22;1974;48.670;8.994;2023-09-19T00:42:31;16.30;99.90
3919;DHT22;1974;48.670;8.994;2023-09-19T00:44:59;16.30;99.90
3919;DHT22;1974;48.670;8.994;2023-09-19T00:47:28;16.20;99.90
3919;DHT22;1974;48.670;8.994;2023-09-19T00:49:56;16.20;99.90
3919;DHT22;1974;48.670;8.994;2023-09-19T00:52:23;16.20;99.90
3919;DHT22;1974;48.670;8.994;2023-09-19T00:54:50;16.20;99.90
3919;DHT22;1974;48.670;8.994;2023-09-19T00:57:19;16.20;99.90
3919;DHT22;1974;48.670;8.994;2023-09-19T00:59:50;16.20;99.90
3919;DHT22;1974;48.670;8.994;2023-09-19T01:02:18;16.20;99.90
3919;DHT22;1974;48.670;8.994;2023-09-19T01:04:45;16.20;99.90
3919;DHT22;1974;48.670;8.994;2023-09-19T01:07:12;16.20;99.90
3919;DHT22;1974;48.670;8.994;2023-09-19T01:09:40;16.10;99.90
3919;DHT22;1974;48.670;8.994;2023-09-19T01:12:08;16.20;99.90
3919;DHT22;1974;48.670;8.994;2023-09-19T01:14:44;16.20;99.90
3919;DHT22;1974;48.670;8.994;2023-09-19T01:17:17;16.20;99.90
3919;DHT22;1974;48.670;8.994;2023-09-19T01:20:15;16.20;99.90
3919;DHT22;1974;48.670;8.994;2023-09-19T01:22:53;16.20;99.90
3919;DHT22;1974;48.670;8.994;2023-09-19T01:25:50;16.20;99.90
3919;DHT22;1974;48.670;8.994;2023-09-19T01:28:31;16.10;99.90
3919;DHT22;1974;48.670;8.994;2023-09-19T01:31:04;16.10;99.90
3919;DHT22;1974;48.670;8.994;2023-09-19T01:33:56;16.10;99.90
3919;DHT22;1974;48.670;8.994;2023-09-19T01:36:25;16.10;99.90
3919;DHT22;1974;48.670;8.994;2023-09-19T01:38:53;16.20;99.90
3919;DHT22;1974;48.670;8.994;2023-09-19T01:41:26;16.10;99.90
3919;DHT22;1974;48.670;8.994;2023-09-19T01:43:52;16.10;99.90
3919;DHT22;1974;48.670;8.994;2023-09-19T01:46:24;16.10;99.90
3919;DHT22;1974;48.670;8.994;2023-09-19T01:49:06;16.20;99.90
3919;DHT22;1974;48.670;8.994;2023-09-19T01:51:46;16.10;99.90
3919;DHT22;1974;48.670;8.994;2023-09-19T01:54:22;16.10;99.90
3919;DHT22;1974;48.670;8.994;2023-09-19T01:56:57;16.20;99.90
3919;DHT22;1974;48.670;8.994;2023-09-19T01:59:34;16.20;99.90
3919;DHT22;1974;48.670;8.994;2023-09-19T02:02:03;16.20;99.90
3919;DHT22;1974;48.670;8.994;2023-09-19T02:04:32;16.10;99.90
3919;DHT22;1974;48.670;8.994;2023-09-19T02:07:00;16.20;99.90
3919;DHT22;1974;48.670;8.994;2023-09-19T02:09:26;16.00;99.90
3919;DHT22;1974;48.670;8.994;2023-09-19T02:11:53;15.90;99.90
3919;DHT22;1974;48.670;8.994;2023-09-19T02:14:21;16.10;99.90
3919;DHT22;1974;48.670;8.994;2023-09-19T02:16:48;16.10;99.90
3919;DHT22;1974;48.670;8.994;2023-09-19T02:19:16;16.10;99.90
3919;DHT22;1974;48.670;8.994;2023-09-19T02:21:43;16.00;99.90
3919;DHT22;1974;48.670;8.994;2023-09-19T02:24:10;16.00;99.90
3919;DHT22;1974;48.670;8.994;2023-09-19T02:26:38;15.90;99.90
3919;DHT22;1974;48.670;8.994;2023-09-19T02:29:04;15.90;99.90
3919;DHT22;1974;48.670;8.994;2023-09-19T02:31:31;15.90;99.90
3919;DHT22;1974;48.670;8.994;2023-09-19T02:33:58;15.90;99.90
3919;DHT22;1974;48.670;8.994;2023-09-19T02:36:26;15.90;99.90
3919;DHT22;1974;48.670;8.994;2023-09-19T02:38:55;15.80;99.90
3919;DHT22;1974;48.670;8.994;2023-09-19T02:41:22;15.80;99.90
3919;DHT22;1974;48.670;8.994;2023-09-19T02:43:49;15.80;99.90
3919;DHT22;1974;48.670;8.994;2023-09-19T02:46:16;15.80;99.90
3919;DHT22;1974;48.670;8.994;2023-09-19T02:48:43;15.80;99.90
3919;DHT22;1974;48.670;8.994;2023-09-19T02:51:10;15.80;99.90
3919;DHT22;1974;48.670;8.994;2023-09-19T02:53:38;15.80;99.90
3919;DHT22;1974;48.670;8.994;2023-09-19T02:56:05;15.80;99.90
3919;DHT22;1974;48.670;8.994;2023-09-19T02:58:32;15.80;99.90
3919;DHT22;1974;48.670;8.994;2023-09-19T03:01:08;15.90;99.90
3919;DHT22;1974;48.670;8.994;2023-09-19T03:03:35;15.90;99.90
3919;DHT22;1974;48.670;8.994;2023-09-19T03:06:03;16.00;99.90
3919;DHT22;1974;48.670;8.994;2023-09-19T03:08:30;16.00;99.90
3919;DHT22;1974;48.670;8.994;2023-09-19T03:10:58;16.00;99.90
3919;DHT22;1974;48.670;8.994;2023-09-19T03:13:26;16.00;99.90
3919;DHT22;1974;48.670;8.994;2023-09-19T03:15:54;16.00;99.90
3919;DHT22;1974;48.670;8.994;2023-09-19T03:18:23;16.00;99.90
3919;DHT22;1974;48.670;8.994;2023-09-19T03:20:55;16.10;99.90
3919;DHT22;1974;48.670;8.994;2023-09-19T03:23:22;16.00;99.90
3919;DHT22;1974;48.670;8.994;2023-09-19T03:25:49;16.10;99.90
3919;DHT22;1974;48.670;8.994;2023-09-19T03:28:18;16.10;99.90
3919;DHT22;1974;48.670;8.994;2023-09-19T03:30:46;16.10;99.90
3919;DHT22;1974;48.670;8.994;2023-09-19T03:33:13;16.20;99.90
3919;DHT22;1974;48.670;8.994;2023-09-19T03:35:40;16.20;99.90
3919;DHT22;1974;48.670;8.994;2023-09-19T03:38:06;16.30;99.90
3919;DHT22;1974;48.670;8.994;2023-09-19T03:40:33;16.20;99.90
3919;DHT22;1974;48.670;8.994;2023-09-19T03:43:03;16.20;99.90
3919;DHT22;1974;48.670;8.994;2023-09-19T03:45:31;16.10;99.90
3919;DHT22;1974;48.670;8.994;2023-09-19T03:47:58;16.20;99.90
3919;DHT22;1974;48.670;8.994;2023-09-19T03:50:24;16.00;99.90
3919;DHT22;1974;48.670;8.994;2023-09-19T03:52:56;16.00;99.90
3919;DHT22;1974;48.670;8.994;2023-09-19T03:55:22;15.90;99.90
3919;DHT22;1974;48.670;8.994;2023-09-19T03:57:49;15.90;99.90
3919;DHT22;1974;48.670;8.994;2023-09-19T04:00:16;15.90;99.90
3919;DHT22;1974;48.670;8.994;2023-09-19T04:02:47;15.90;99.90
3919;DHT22;1974;48.670;8.994;2023-09-19T04:05:14;15.80;99.90
3919;DHT22;1974;48.670;8.994;2023-09-19T04:07:41;15.90;99.90
3919;DHT22;1974;48.670;8.994;2023-09-19T04:10:09;15.90;99.90
3919;DHT22;1974;48.670;8.994;2023-09-19T04:12:37;15.90;99.90
3919;DHT22;1974;48.670;8.994;2023-09-19T04:15:04;15.90;99.90
3919;DHT22;1974;48.670;8.994;2023-09-19T04:17:31;15.90;99.90
3919;DHT22;1974;48.670;8.994;2023-09-19T04:20:00;15.90;99.90
3919;DHT22;1974;48.670;8.994;2023-09-19T04:22:27;16.00;99.90
3919;DHT22;1974;48.670;8.994;2023-09-19T04:24:53;16.00;99.90
3919;DHT22;1974;48.670;8.994;2023-09-19T04:27:20;16.10;99.90
3919;DHT22;1974;48.670;8.994;2023-09-19T04:29:47;16.10;99.90
3919;DHT22;1974;48.670;8.994;2023-09-19T04:32:18;16.00;99.90
3919;DHT22;1974;48.670;8.994;2023-09-19T04:34:45;16.00;99.90
3919;DHT22;1974;48.670;8.994;2023-09-19T04:37:16;16.00;99.90
3919;DHT22;1974;48.670;8.994;2023-09-19T04:39:43;16.10;99.90
3919;DHT22;1974;48.670;8.994;2023-09-19T04:42:12;16.10;99.90
3919;DHT22;1974;48.670;8.994;2023-09-19T04:44:40;16.10;99.90
3919;DHT22;1974;48.670;8.994;2023-09-19T04:47:07;16.10;99.90
3919;DHT22;1974;48.670;8.994;2023-09-19T04:49:34;16.10;99.90
3919;DHT22;1974;48.670;8.994;2023-09-19T04:52:01;16.20;99.90
3919;DHT22;1974;48.670;8.994;2023-09-19T04:54:29;16.10;99.90
3919;DHT22;1974;48.670;8.994;2023-09-19T04:56:55;16.10;99.90
3919;DHT22;1974;48.670;8.994;2023-09-19T04:59:22;16.10;99.90
3919;DHT22;1974;48.670;8.994;2023-09-19T05:01:49;16.10;99.90
3919;DHT22;1974;48.670;8.994;2023-09-19T05:04:16;16.10;99.90
3919;DHT22;1974;48.670;8.994;2023-09-19T05:06:42;16.00;99.90
3919;DHT22;1974;48.670;8.994;2023-09-19T05:09:09;15.90;99.90
3919;DHT22;1974;48.670;8.994;2023-09-19T05:11:37;15.90;99.90
3919;DHT22;1974;48.670;8.994;2023-09-19T05:14:04;15.80;99.90
3919;DHT22;1974;48.670;8.994;2023-09-19T05:16:31;15.90;99.90
3919;DHT22;1974;48.670;8.994;2023-09-19T05:18:57;15.80;99.90
3919;DHT22;1974;48.670;8.994;2023-09-19T05:21:25;15.70;99.90
3919;DHT22;1974;48.670;8.994;2023-09-19T05:23:54;15.70;99.90
3919;DHT22;1974;48.670;8.994;2023-09-19T05:26:21;15.60;99.90
3919;DHT22;1974;48.670;8.994;2023-09-19T05:28:49;15.50;99.90
3919;DHT22;1974;48.670;8.994;2023-09-19T05:31:15;15.50;99.90
3919;DHT22;1974;48.670;8.994;2023-09-19T05:33:42;15.50;99.90
3919;DHT22;1974;48.670;8.994;2023-09-19T05:36:09;15.50;99.90
3919;DHT22;1974;48.670;8.994;2023-09-19T05:38:37;15.40;99.90
3919;DHT22;1974;48.670;8.994;2023-09-19T05:41:06;15.50;99.90
3919;DHT22;1974;48.670;8.994;2023-09-19T05:43:33;15.50;99.90
3919;DHT22;1974;48.670;8.994;2023-09-19T05:46:01;15.50;99.90
3919;DHT22;1974;48.670;8.994;2023-09-19T05:48:28;15.50;99.90
3919;DHT22;1974;48.670;8.994;2023-09-19T05:50:55;15.60;99.90
3919;DHT22;1974;48.670;8.994;2023-09-19T05:53:22;15.60;99.90
3919;DHT22;1974;48.670;8.994;2023-09-19T05:55:48;15.50;99.90
3919;DHT22;1974;48.670;8.994;2023-09-19T05:58:16;15.60;99.90
3919;DHT22;1974;48.670;8.994;2023-09-19T06:00:43;15.60;99.90
3919;DHT22;1974;48.670;8.994;2023-09-19T06:03:14;15.70;99.90
3919;DHT22;1974;48.670;8.994;2023-09-19T06:05:41;15.50;99.90
3919;DHT22;1974;48.670;8.994;2023-09-19T06:08:08;15.60;99.90
3919;DHT22;1974;48.670;8.994;2023-09-19T06:10:35;15.50;99.90
3919;DHT22;1974;48.670;8.994;2023-09-19T06:13:02;15.40;99.90
3919;DHT22;1974;48.670;8.994;2023-09-19T06:15:30;15.40;99.90
3919;DHT22;1974;48.670;8.994;2023-09-19T06:17:59;15.40;99.90
3919;DHT22;1974;48.670;8.994;2023-09-19T06:20:29;15.40;99.90
3919;DHT22;1974;48.670;8.994;2023-09-19T06:22:57;15.30;99.90
3919;DHT22;1974;48.670;8.994;2023-09-19T06:25:24;15.30;99.90
3919;DHT22;1974;48.670;8.994;2023-09-19T06:27:52;15.30;99.90
3919;DHT22;1974;48.670;8.994;2023-09-19T06:30:20;15.20;99.90
3919;DHT22;1974;48.670;8.994;2023-09-19T06:32:48;15.30;99.90
3919;DHT22;1974;48.670;8.994;2023-09-19T06:35:16;15.30;99.90
3919;DHT22;1974;48.670;8.994;2023-09-19T06:37:44;15.40;99.90
3919;DHT22;1974;48.670;8.994;2023-09-19T06:40:12;15.50;99.90
3919;DHT22;1974;48.670;8.994;2023-09-19T06:42:40;15.60;99.90
3919;DHT22;1974;48.670;8.994;2023-09-19T06:45:08;15.60;99.90
3919;DHT22;1974;48.670;8.994;2023-09-19T06:47:37;15.70;99.90
3919;DHT22;1974;48.670;8.994;2023-09-19T06:50:04;15.80;99.90
3919;DHT22;1974;48.670;8.994;2023-09-19T06:52:31;15.80;99.90
3919;DHT22;1974;48.670;8.994;2023-09-19T06:55:00;15.90;99.90
3919;DHT22;1974;48.670;8.994;2023-09-19T06:57:28;16.00;99.90
3919;DHT22;1974;48.670;8.994;2023-09-19T06:59:56;16.00;99.90
3919;DHT22;1974;48.670;8.994;2023-09-19T07:02:22;16.00;99.90
3919;DHT22;1974;48.670;8.994;2023-09-19T07:04:49;16.10;99.90
3919;DHT22;1974;48.670;8.994;2023-09-19T07:07:16;16.10;99.90
3919;DHT22;1974;48.670;8.994;2023-09-19T07:09:42;16.10;99.90
3919;DHT22;1974;48.670;8.994;2023-09-19T07:12:10;16.20;99.90
3919;DHT22;1974;48.670;8.994;2023-09-19T07:14:38;16.20;99.90
3919;DHT22;1974;48.670;8.994;2023-09-19T07:17:05;16.30;99.90
3919;DHT22;1974;48.670;8.994;2023-09-19T07:19:32;16.30;99.90
3919;DHT22;1974;48.670;8.994;2023-09-19T07:21:58;16.30;99.90
3919;DHT22;1974;48.670;8.994;2023-09-19T07:24:28;16.40;99.90
3919;DHT22;1974;48.670;8.994;2023-09-19T07:26:55;16.50;99.90
3919;DHT22;1974;48.670;8.994;2023-09-19T07:29:23;16.50;99.90
3919;DHT22;1974;48.670;8.994;2023-09-19T07:31:51;16.50;99.90
3919;DHT22;1974;48.670;8.994;2023-09-19T07:34:18;16.60;99.90
3919;DHT22;1974;48.670;8.994;2023-09-19T07:36:46;16.70;99.90
3919;DHT22;1974;48.670;8.994;2023-09-19T07:39:13;16.80;99.90
3919;DHT22;1974;48.670;8.994;2023-09-19T07:41:39;16.80;99.90
3919;DHT22;1974;48.670;8.994;2023-09-19T07:44:07;16.90;99.90
3919;DHT22;1974;48.670;8.994;2023-09-19T07:46:35;16.90;99.90
3919;DHT22;1974;48.670;8.994;2023-09-19T07:49:02;16.70;99.90
3919;DHT22;1974;48.670;8.994;2023-09-19T07:51:30;16.90;99.90
3919;DHT22;1974;48.670;8.994;2023-09-19T07:53:58;16.90;99.90
3919;DHT22;1974;48.670;8.994;2023-09-19T07:56:25;16.90;99.90
3919;DHT22;1974;48.670;8.994;2023-09-19T07:58:53;17.00;99.90
3919;DHT22;1974;48.670;8.994;2023-09-19T08:01:20;17.10;99.90
3919;DHT22;1974;48.670;8.994;2023-09-19T08:03:50;17.20;99.90
3919;DHT22;1974;48.670;8.994;2023-09-19T08:06:17;17.40;99.90
3919;DHT22;1974;48.670;8.994;2023-09-19T08:08:44;17.50;99.90
3919;DHT22;1974;48.670;8.994;2023-09-19T08:11:11;17.60;99.90
3919;DHT22;1974;48.670;8.994;2023-09-19T08:13:38;17.70;99.90
3919;DHT22;1974;48.670;8.994;2023-09-19T08:16:09;17.70;99.90
3919;DHT22;1974;48.670;8.994;2023-09-19T08:18:35;17.80;99.90
3919;DHT22;1974;48.670;8.994;2023-09-19T08:21:04;17.80;99.90
3919;DHT22;1974;48.670;8.994;2023-09-19T08:23:33;17.80;99.90
3919;DHT22;1974;48.670;8.994;2023-09-19T08:26:00;17.80;99.90
3919;DHT22;1974;48.670;8.994;2023-09-19T08:28:32;17.80;99.90
3919;DHT22;1974;48.670;8.994;2023-09-19T08:31:02;17.90;99.90
3919;DHT22;1974;48.670;8.994;2023-09-19T08:33:31;17.90;99.90
3919;DHT22;1974;48.670;8.994;2023-09-19T08:35:57;17.80;99.90
3919;DHT22;1974;48.670;8.994;2023-09-19T08:38:25;18.00;99.90
3919;DHT22;1974;48.670;8.994;2023-09-19T08:40:57;18.10;99.90
3919;DHT22;1974;48.670;8.994;2023-09-19T08:43:23;18.30;99.90
3919;DHT22;1974;48.670;8.994;2023-09-19T08:45:51;18.50;99.90
3919;DHT22;1974;48.670;8.994;2023-09-19T08:48:23;18.60;99.90
3919;DHT22;1974;48.670;8.994;2023-09-19T08:50:52;18.70;99.90
3919;DHT22;1974;48.670;8.994;2023-09-19T08:53:33;18.80;99.90
3919;DHT22;1974;48.670;8.994;2023-09-19T08:56:03;19.10;99.90
3919;DHT22;1974;48.670;8.994;2023-09-19T08:58:37;19.30;99.90
3919;DHT22;1974;48.670;8.994;2023-09-19T09:01:06;19.50;99.90
3919;DHT22;1974;48.670;8.994;2023-09-19T09:03:35;19.70;99.90
3919;DHT22;1974;48.670;8.994;2023-09-19T09:06:02;19.90;99.90
3919;DHT22;1974;48.670;8.994;2023-09-19T09:08:31;20.00;99.90
3919;DHT22;1974;48.670;8.994;2023-09-19T09:10:59;19.90;99.90
3919;DHT22;1974;48.670;8.994;2023-09-19T09:13:26;19.70;99.90
3919;DHT22;1974;48.670;8.994;2023-09-19T09:15:53;19.60;99.90
3919;DHT22;1974;48.670;8.994;2023-09-19T09:18:20;19.60;99.90
3919;DHT22;1974;48.670;8.994;2023-09-19T09:20:48;19.60;99.90
3919;DHT22;1974;48.670;8.994;2023-09-19T09:23:14;19.60;99.90
3919;DHT22;1974;48.670;8.994;2023-09-19T09:25:49;19.70;99.90
3919;DHT22;1974;48.670;8.994;2023-09-19T09:28:21;19.50;99.90
3919;DHT22;1974;48.670;8.994;2023-09-19T09:30:48;19.50;99.90
3919;DHT22;1974;48.670;8.994;2023-09-19T09:33:16;19.40;99.90
3919;DHT22;1974;48.670;8.994;2023-09-19T09:35:51;19.50;99.90
3919;DHT22;1974;48.670;8.994;2023-09-19T09:38:23;19.70;99.90
3919;DHT22;1974;48.670;8.994;2023-09-19T09:40:55;20.00;99.90
3919;DHT22;1974;48.670;8.994;2023-09-19T09:43:31;20.20;99.90
3919;DHT22;1974;48.670;8.994;2023-09-19T09:46:12;20.30;99.90
3919;DHT22;1974;48.670;8.994;2023-09-19T09:49:01;20.40;99.90
3919;DHT22;1974;48.670;8.994;2023-09-19T09:51:48;20.60;99.90
3919;DHT22;1974;48.670;8.994;2023-09-19T09:54:23;20.80;99.90
3919;DHT22;1974;48.670;8.994;2023-09-19T09:56:55;20.90;99.90
3919;DHT22;1974;48.670;8.994;2023-09-19T09:59:45;21.00;99.90
3919;DHT22;1974;48.670;8.994;2023-09-19T10:02:16;21.00;99.90
3919;DHT22;1974;48.670;8.994;2023-09-19T10:04:49;20.90;99.90
3919;DHT22;1974;48.670;8.994;2023-09-19T10:07:28;20.70;99.90
3919;DHT22;1974;48.670;8.994;2023-09-19T10:10:02;20.50;99.90
3919;DHT22;1974;48.670;8.994;2023-09-19T10:12:44;20.20;99.90
3919;DHT22;1974;48.670;8.994;2023-09-19T10:15:15;20.00;99.90
3919;DHT22;1974;48.670;8.994;2023-09-19T10:17:44;20.00;99.90
3919;DHT22;1974;48.670;8.994;2023-09-19T10:20:15;20.00;99.90
3919;DHT22;1974;48.670;8.994;2023-09-19T10:23:05;20.00;99.90
3919;DHT22;1974;48.670;8.994;2023-09-19T10:25:37;19.90;99.90
3919;DHT22;1974;48.670;8.994;2023-09-19T10:28:08;19.90;99.90
3919;DHT22;1974;48.670;8.994;2023-09-19T10:30:38;19.80;99.90
3919;DHT22;1974;48.670;8.994;2023-09-19T10:33:07;19.90;99.90
3919;DHT22;1974;48.670;8.994;2023-09-19T10:35:38;20.00;99.90
3919;DHT22;1974;48.670;8.994;2023-09-19T10:38:06;20.40;99.90
3919;DHT22;1974;48.670;8.994;2023-09-19T10:40:35;20.80;99.90
3919;DHT22;1974;48.670;8.994;2023-09-19T10:43:04;21.10;99.90
3919;DHT22;1974;48.670;8.994;2023-09-19T10:45:33;21.20;99.90
3919;DHT22;1974;48.670;8.994;2023-09-19T10:48:01;21.50;99.90
3919;DHT22;1974;48.670;8.994;2023-09-19T10:50:31;21.40;99.90
3919;DHT22;1974;48.670;8.994;2023-09-19T10:53:00;21.40;99.90
3919;DHT22;1974;48.670;8.994;2023-09-19T10:55:32;21.50;99.90
3919;DHT22;1974;48.670;8.994;2023-09-19T10:58:01;21.50;99.90
3919;DHT22;1974;48.670;8.994;2023-09-19T11:00:54;21.60;99.90
3919;DHT22;1974;48.670;8.994;2023-09-19T11:03:23;21.60;99.90
3919;DHT22;1974;48.670;8.994;2023-09-19T11:06:03;21.50;99.90
3919;DHT22;1974;48.670;8.994;2023-09-19T11:08:30;21.40;99.90
3919;DHT22;1974;48.670;8.994;2023-09-19T11:10:58;21.30;99.90
3919;DHT22;1974;48.670;8.994;2023-09-19T11:13:25;21.30;99.90
3919;DHT22;1974;48.670;8.994;2023-09-19T11:16:04;21.30;99.90
3919;DHT22;1974;48.670;8.994;2023-09-19T11:18:56;21.30;99.90
3919;DHT22;1974;48.670;8.994;2023-09-19T11:21:51;21.20;99.90
3919;DHT22;1974;48.670;8.994;2023-09-19T11:24:31;21.00;99.90
3919;DHT22;1974;48.670;8.994;2023-09-19T11:27:12;20.80;99.90
3919;DHT22;1974;48.670;8.994;2023-09-19T11:29:40;20.70;99.90
3919;DHT22;1974;48.670;8.994;2023-09-19T11:32:08;20.70;99.90
3919;DHT22;1974;48.670;8.994;2023-09-19T11:34:48;20.90;99.90
3919;DHT22;1974;48.670;8.994;2023-09-19T11:40:44;21.20;99.90
3919;DHT22;1974;48.670;8.994;2023-09-19T11:43:32;21.40;99.90
3919;DHT22;1974;48.670;8.994;2023-09-19T11:46:08;21.20;99.90
3919;DHT22;1974;48.670;8.994;2023-09-19T11:48:38;21.10;99.90
3919;DHT22;1974;48.670;8.994;2023-09-19T11:51:27;21.00;99.90
3919;DHT22;1974;48.670;8.994;2023-09-19T11:53:57;20.80;99.90
3919;DHT22;1974;48.670;8.994;2023-09-19T11:56:26;20.90;99.90
3919;DHT22;1974;48.670;8.994;2023-09-19T11:58:54;21.00;99.90
3919;DHT22;1974;48.670;8.994;2023-09-19T12:01:23;21.00;99.90
3919;DHT22;1974;48.670;8.994;2023-09-19T12:03:55;20.90;99.90
3919;DHT22;1974;48.670;8.994;2023-09-19T12:06:24;20.80;99.90
3919;DHT22;1974;48.670;8.994;2023-09-19T12:08:51;20.70;99.90
3919;DHT22;1974;48.670;8.994;2023-09-19T12:11:20;20.60;99.90
3919;DHT22;1974;48.670;8.994;2023-09-19T12:13:48;20.60;99.90
3919;DHT22;1974;48.670;8.994;2023-09-19T12:16:16;20.70;99.90
3919;DHT22;1974;48.670;8.994;2023-09-19T12:18:44;20.70;99.90
3919;DHT22;1974;48.670;8.994;2023-09-19T12:21:25;20.70;99.90
3919;DHT22;1974;48.670;8.994;2023-09-19T12:24:06;20.70;99.90
3919;DHT22;1974;48.670;8.994;2023-09-19T12:26:41;20.70;99.90
3919;DHT22;1974;48.670;8.994;2023-09-19T12:29:16;20.70;99.90
3919;DHT22;1974;48.670;8.994;2023-09-19T12:31:51;20.70;99.90
3919;DHT22;1974;48.670;8.994;2023-09-19T12:34:23;20.60;99.90
3919;DHT22;1974;48.670;8.994;2023-09-19T12:37:05;20.50;99.90
3919;DHT22;1974;48.670;8.994;2023-09-19T12:39:40;20.40;99.90
3919;DHT22;1974;48.670;8.994;2023-09-19T12:42:15;20.30;99.90
3919;DHT22;1974;48.670;8.994;2023-09-19T12:44:43;20.30;99.90
3919;DHT22;1974;48.670;8.994;2023-09-19T12:47:11;20.20;99.90
3919;DHT22;1974;48.670;8.994;2023-09-19T12:50:06;20.10;99.90
3919;DHT22;1974;48.670;8.994;2023-09-19T12:52:38;20.10;99.90
3919;DHT22;1974;48.670;8.994;2023-09-19T12:55:06;20.70;99.90
3919;DHT22;1974;48.670;8.994;2023-09-19T12:57:35;20.10;99.90
3919;DHT22;1974;48.670;8.994;2023-09-19T13:00:02;20.10;99.90
3919;DHT22;1974;48.670;8.994;2023-09-19T13:02:31;20.10;99.90
3919;DHT22;1974;48.670;8.994;2023-09-19T13:04:58;20.00;99.90
3919;DHT22;1974;48.670;8.994;2023-09-19T13:07:43;20.00;99.90
3919;DHT22;1974;48.670;8.994;2023-09-19T13:10:15;20.00;99.90
3919;DHT22;1974;48.670;8.994;2023-09-19T13:12:43;20.00;99.90
3919;DHT22;1974;48.670;8.994;2023-09-19T13:15:14;20.00;99.90
3919;DHT22;1974;48.670;8.994;2023-09-19T13:17:45;20.00;99.90
3919;DHT22;1974;48.670;8.994;2023-09-19T13:20:21;20.00;99.90
3919;DHT22;1974;48.670;8.994;2023-09-19T13:22:54;20.00;99.90
3919;DHT22;1974;48.670;8.994;2023-09-19T13:25:25;20.00;99.90
3919;DHT22;1974;48.670;8.994;2023-09-19T13:27:56;20.00;99.90
3919;DHT22;1974;48.670;8.994;2023-09-19T13:30:26;20.00;99.90
3919;DHT22;1974;48.670;8.994;2023-09-19T13:33:04;20.00;99.90
3919;DHT22;1974;48.670;8.994;2023-09-19T13:35:31;20.00;99.90
3919;DHT22;1974;48.670;8.994;2023-09-19T13:37:59;20.10;99.90
3919;DHT22;1974;48.670;8.994;2023-09-19T13:40:26;20.10;99.90
3919;DHT22;1974;48.670;8.994;2023-09-19T13:42:56;20.10;99.90
3919;DHT22;1974;48.670;8.994;2023-09-19T13:45:22;20.10;99.90
3919;DHT22;1974;48.670;8.994;2023-09-19T13:47:50;20.10;99.90
3919;DHT22;1974;48.670;8.994;2023-09-19T13:50:17;20.10;99.90
3919;DHT22;1974;48.670;8.994;2023-09-19T13:52:49;20.50;99.90
3919;DHT22;1974;48.670;8.994;2023-09-19T13:55:18;20.60;99.90
3919;DHT22;1974;48.670;8.994;2023-09-19T13:57:45;20.10;99.90
3919;DHT22;1974;48.670;8.994;2023-09-19T14:00:13;20.20;99.90
3919;DHT22;1974;48.670;8.994;2023-09-19T14:02:41;20.20;99.90
3919;DHT22;1974;48.670;8.994;2023-09-19T14:05:10;20.30;99.90
3919;DHT22;1974;48.670;8.994;2023-09-19T14:07:38;20.40;99.90
3919;DHT22;1974;48.670;8.994;2023-09-19T14:10:07;20.40;99.90
3919;DHT22;1974;48.670;8.994;2023-09-19T14:12:35;20.40;99.90
3919;DHT22;1974;48.670;8.994;2023-09-19T14:15:02;20.50;99.90
3919;DHT22;1974;48.670;8.994;2023-09-19T14:17:28;20.40;99.90
3919;DHT22;1974;48.670;8.994;2023-09-19T14:19:55;20.40;99.90
3919;DHT22;1974;48.670;8.994;2023-09-19T14:22:22;20.30;99.90
3919;DHT22;1974;48.670;8.994;2023-09-19T14:24:49;20.30;99.90
3919;DHT22;1974;48.670;8.994;2023-09-19T14:27:16;20.30;99.90
3919;DHT22;1974;48.670;8.994;2023-09-19T14:29:44;20.40;99.90
3919;DHT22;1974;48.670;8.994;2023-09-19T14:32:10;20.30;99.90
3919;DHT22;1974;48.670;8.994;2023-09-19T14:34:38;20.40;99.90
3919;DHT22;1974;48.670;8.994;2023-09-19T14:37:07;20.40;99.90
3919;DHT22;1974;48.670;8.994;2023-09-19T14:39:34;20.40;99.90
3919;DHT22;1974;48.670;8.994;2023-09-19T14:42:01;20.40;99.90
3919;DHT22;1974;48.670;8.994;2023-09-19T14:44:28;20.50;99.90
3919;DHT22;1974;48.670;8.994;2023-09-19T14:46:56;20.40;99.90
3919;DHT22;1974;48.670;8.994;2023-09-19T14:49:24;20.50;99.90
3919;DHT22;1974;48.670;8.994;2023-09-19T14:51:51;20.50;99.90
3919;DHT22;1974;48.670;8.994;2023-09-19T14:54:18;20.40;99.90
3919;DHT22;1974;48.670;8.994;2023-09-19T14:56:45;20.40;99.90
3919;DHT22;1974;48.670;8.994;2023-09-19T14:59:19;20.40;99.90
3919;DHT22;1974;48.670;8.994;2023-09-19T15:01:45;20.30;99.90
3919;DHT22;1974;48.670;8.994;2023-09-19T15:04:15;20.30;99.90
3919;DHT22;1974;48.670;8.994;2023-09-19T15:06:43;20.30;99.90
3919;DHT22;1974;48.670;8.994;2023-09-19T15:09:10;20.30;99.90
3919;DHT22;1974;48.670;8.994;2023-09-19T15:11:37;20.30;99.90
3919;DHT22;1974;48.670;8.994;2023-09-19T15:14:03;20.30;99.90
3919;DHT22;1974;48.670;8.994;2023-09-19T15:16:30;20.20;99.90
3919;DHT22;1974;48.670;8.994;2023-09-19T15:18:58;20.30;99.90
3919;DHT22;1974;48.670;8.994;2023-09-19T15:21:26;20.20;99.90
3919;DHT22;1974;48.670;8.994;2023-09-19T15:23:52;20.20;99.90
3919;DHT22;1974;48.670;8.994;2023-09-19T15:26:19;20.20;99.90
3919;DHT22;1974;48.670;8.994;2023-09-19T15:28:47;20.10;99.90
3919;DHT22;1974;48.670;8.994;2023-09-19T15:31:14;20.20;99.90
3919;DHT22;1974;48.670;8.994;2023-09-19T15:33:41;20.20;99.90
3919;DHT22;1974;48.670;8.994;2023-09-19T15:36:09;20.20;99.90
3919;DHT22;1974;48.670;8.994;2023-09-19T15:41:30;20.10;99.90
3919;DHT22;1974;48.670;8.994;2023-09-19T15:43:59;20.00;99.90
3919;DHT22;1974;48.670;8.994;2023-09-19T15:46:26;20.00;99.90
3919;DHT22;1974;48.670;8.994;2023-09-19T15:48:54;20.00;99.90
3919;DHT22;1974;48.670;8.994;2023-09-19T15:51:21;20.00;99.90
3919;DHT22;1974;48.670;8.994;2023-09-19T15:53:50;20.00;99.90
3919;DHT22;1974;48.670;8.994;2023-09-19T15:56:18;20.00;99.90
3919;DHT22;1974;48.670;8.994;2023-09-19T15:58:49;20.00;99.90
3919;DHT22;1974;48.670;8.994;2023-09-19T16:01:16;19.90;99.90
3919;DHT22;1974;48.670;8.994;2023-09-19T16:03:44;19.80;99.90
3919;DHT22;1974;48.670;8.994;2023-09-19T16:06:12;19.90;99.90
3919;DHT22;1974;48.670;8.994;2023-09-19T16:08:39;19.90;99.90
3919;DHT22;1974;48.670;8.994;2023-09-19T16:11:07;19.80;99.90
3919;DHT22;1974;48.670;8.994;2023-09-19T16:13:33;19.80;99.90
3919;DHT22;1974;48.670;8.994;2023-09-19T16:16:01;19.80;99.90
3919;DHT22;1974;48.670;8.994;2023-09-19T16:18:29;19.70;99.90
3919;DHT22;1974;48.670;8.994;2023-09-19T16:21:01;19.80;99.90
3919;DHT22;1974;48.670;8.994;2023-09-19T16:23:28;19.70;99.90